Ana Sayfa
METAR-TAF:

METAR-TAF

Havaalanları :

Isbell Field

Fort Payne, Alabama, Amerika Birleşik Devletleri

Enlem: 34-28-25N, Boylam: 085-43-17W, yükseklik: 267 m

Güncel hava durumu gözlemi

Rapor saat 17:35 UTC de 41 dakika önce yapıldı.
Rüzgar kuzey/kuzeybatıdan 6 kt
Sıcaklık 34°C
Nem 32%
Basınç 1016 hPa
Görüş mesafesi: 16.1 km
Açık gökyüzü

METAR: K4A9 251735Z AUTO 33006KT 10SM CLR 34/15 A2999 RMK AO2 T03400146

Saat: 13:16 (18:16 UTC)


TAF: eksik

4.000'den fazla havaalanı için hava durumu gözlemleri ve tahminleri (METAR ve TAF raporları).

Kullanılabilir istasyonlar harita üzerinde sarı ve kırmızı noktalarla gösterilir.

İstasyonun adını görmek için fareyi noktanın üzerinde gezdirin.

Sonrasında hava gözlem ve tahminlerini görmek için tıklayın.

Haritayı değiştirmek için: yaklaştırmak için siyah artı işaretli yeşil düğmeye ve uzaklaştırmak için de eksi işaretli düğmeye hızla tıklayın; bitişik haritalar için yeşil okları kullanın.


METAR-TAF: